Time;durP1;ratioP1;P1;durP2;ratioP2;P2;SDS_P1;SDS_P2;PMS_P1;PMS_P2;Temp;Humidity;BMP_temperature;BMP_pressure;BME280_temperature;BME280_humidity;BME280_pressure;Samples;Min_cycle;Max_cycle;Signal;HPM_P1;HPM_P2
2021/01/28 00:02:19;;;;;;;70.60;23.80;;;7.30;99.90;;;;;;5038147;28;35966;-74
2021/01/28 00:04:45;;;;;;;85.63;26.43;;;7.30;99.90;;;;;;5036485;27;37284;-74
2021/01/28 00:07:11;;;;;;;92.20;25.97;;;7.30;99.90;;;;;;5050911;27;40387;-74
2021/01/28 00:09:37;;;;;;;79.13;25.43;;;7.30;99.90;;;;;;5033390;28;38752;-74
2021/01/28 00:12:03;;;;;;;115.23;28.30;;;7.30;99.90;;;;;;5035912;28;38232;-74
2021/01/28 00:14:29;;;;;;;82.73;26.57;;;7.20;99.90;;;;;;5035029;27;37565;-73
2021/01/28 00:16:55;;;;;;;108.77;27.23;;;7.20;99.90;;;;;;5065316;28;39389;-74
2021/01/28 00:19:22;;;;;;;89.37;26.83;;;7.20;99.90;;;;;;5036003;28;38251;-74
2021/01/28 00:21:48;;;;;;;83.43;23.87;;;7.10;99.90;;;;;;5042905;28;39807;-74
2021/01/28 00:24:14;;;;;;;66.50;22.63;;;7.10;99.90;;;;;;5032434;28;36408;-74
2021/01/28 00:26:40;;;;;;;151.87;26.40;;;7.00;99.90;;;;;;5041690;27;38877;-74
2021/01/28 00:29:06;;;;;;;65.43;22.53;;;7.10;99.90;;;;;;5035653;28;38822;-74
2021/01/28 00:31:32;;;;;;;80.10;22.77;;;7.00;99.90;;;;;;5034066;28;38145;-74
2021/01/28 00:33:58;;;;;;;46.90;20.10;;;7.00;99.90;;;;;;5050794;27;39010;-74
2021/01/28 00:36:25;;;;;;;50.23;21.03;;;7.00;99.90;;;;;;5030296;28;38894;-73
2021/01/28 00:38:51;;;;;;;45.47;19.60;;;7.00;99.90;;;;;;5034387;27;39044;-74
2021/01/28 00:41:17;;;;;;;70.00;21.43;;;7.00;99.90;;;;;;5032757;27;37796;-74
2021/01/28 00:43:44;;;;;;;58.37;20.40;;;7.10;99.90;;;;;;5038780;28;36052;-73
2021/01/28 00:46:10;;;;;;;80.57;21.90;;;7.10;99.90;;;;;;5034765;28;37689;-74
2021/01/28 00:48:36;;;;;;;104.57;23.73;;;7.10;99.90;;;;;;5037645;27;41051;-74
2021/01/28 00:51:03;;;;;;;38.93;18.03;;;7.00;99.90;;;;;;5038059;27;38279;-74
2021/01/28 00:53:30;;;;;;;50.50;18.83;;;7.00;99.90;;;;;;5044763;27;37009;-74
2021/01/28 00:55:56;;;;;;;66.10;21.33;;;7.00;99.90;;;;;;5039472;28;37939;-74
2021/01/28 00:58:24;;;;;;;88.37;23.33;;;7.00;99.90;;;;;;5040889;27;36535;-74
2021/01/28 01:00:51;;;;;;;117.37;24.70;;;7.10;99.90;;;;;;5035776;27;38225;-74
2021/01/28 01:03:20;;;;;;;32.70;17.27;;;7.10;99.90;;;;;;5039736;28;38340;-73
2021/01/28 01:05:47;;;;;;;51.47;19.83;;;7.10;99.90;;;;;;5035119;27;38847;-74
2021/01/28 01:08:20;;;;;;;89.57;22.97;;;7.10;99.90;;;;;;5051744;28;37367;-74
2021/01/28 01:10:52;;;;;;;142.23;27.35;;;7.20;99.90;;;;;;5034388;28;38473;-74
2021/01/28 01:13:23;;;;;;;70.03;22.13;;;7.20;99.90;;;;;;5055871;28;37922;-74
2021/01/28 01:15:50;;;;;;;66.83;19.33;;;7.20;99.90;;;;;;5023660;28;38898;-74
2021/01/28 01:18:19;;;;;;;54.93;21.27;;;7.20;99.90;;;;;;5020044;28;38648;-73
2021/01/28 01:20:45;;;;;;;60.13;21.30;;;7.20;99.90;;;;;;5021020;28;38000;-72
2021/01/28 01:23:11;;;;;;;61.10;21.60;;;7.20;99.90;;;;;;5038916;28;37451;-74
2021/01/28 01:25:38;;;;;;;45.17;18.90;;;7.10;99.90;;;;;;5074561;28;37965;-73
2021/01/28 01:28:04;;;;;;;93.87;22.17;;;7.20;99.90;;;;;;5042128;28;39524;-73
2021/01/28 01:30:31;;;;;;;47.50;20.50;;;7.20;99.90;;;;;;5041365;28;37787;-73
2021/01/28 01:32:57;;;;;;;66.40;20.67;;;7.20;99.90;;;;;;5043018;28;37197;-73
2021/01/28 01:35:24;;;;;;;70.17;20.53;;;7.20;99.90;;;;;;5016972;28;39308;-73
2021/01/28 01:37:53;;;;;;;80.53;22.33;;;7.20;99.90;;;;;;5018968;28;38959;-73
2021/01/28 01:40:43;;;;;;;52.93;19.20;;;7.10;99.90;;;;;;5018186;28;38900;-74
2021/01/28 01:43:11;;;;;;;42.60;18.40;;;7.20;99.90;;;;;;5022715;28;37791;-75
2021/01/28 01:45:47;;;;;;;64.77;20.97;;;7.10;99.90;;;;;;5047212;28;39015;-75
2021/01/28 01:48:50;;;;;;;44.00;18.83;;;7.20;99.90;;;;;;5016764;28;39037;-75
2021/01/28 01:51:21;;;;;;;36.28;17.38;;;7.20;99.90;;;;;;5016787;28;37289;-74
2021/01/28 01:54:08;;;;;;;57.00;19.93;;;7.20;99.90;;;;;;5020331;28;38513;-74
2021/01/28 01:57:03;;;;;;;48.10;18.93;;;7.20;99.90;;;;;;5037662;28;49648;-74
2021/01/28 01:59:40;;;;;;;35.33;17.23;;;7.10;99.90;;;;;;5038035;28;47059;-74
2021/01/28 02:02:11;;;;;;;35.70;17.37;;;7.10;99.90;;;;;;5050525;27;37500;-74
2021/01/28 02:04:38;;;;;;;33.20;15.87;;;7.10;99.90;;;;;;5030638;28;38198;-74
2021/01/28 02:07:30;;;;;;;66.50;18.60;;;7.00;99.90;;;;;;5042338;28;38869;-75
2021/01/28 02:09:57;;;;;;;50.05;16.88;;;7.00;99.90;;;;;;5039628;28;38864;-74
2021/01/28 02:12:23;;;;;;;97.50;20.00;;;7.00;99.90;;;;;;5039298;27;38755;-74
2021/01/28 02:14:51;;;;;;;46.60;17.17;;;7.00;99.90;;;;;;5039798;28;37514;-74
2021/01/28 02:17:21;;;;;;;116.57;21.80;;;7.00;99.90;;;;;;5040437;28;38975;-74
2021/01/28 02:19:53;;;;;;;115.53;23.53;;;7.00;99.90;;;;;;5074951;28;38267;-74
2021/01/28 02:22:31;;;;;;;104.72;21.23;;;7.00;99.90;;;;;;5036386;28;39773;-74
2021/01/28 02:25:19;;;;;;;55.63;20.57;;;7.00;99.90;;;;;;5044480;27;37155;-74
2021/01/28 02:27:45;;;;;;;56.70;20.60;;;7.00;99.90;;;;;;5037307;27;48810;-73
2021/01/28 02:30:17;;;;;;;81.30;21.20;;;7.00;99.90;;;;;;5036406;27;39206;-73
2021/01/28 02:32:47;;;;;;;62.47;21.30;;;7.00;99.90;;;;;;5033773;28;39232;-75
2021/01/28 02:35:14;;;;;;;84.20;25.63;;;7.00;99.90;;;;;;5029126;28;38109;-74
2021/01/28 02:37:40;;;;;;;45.73;22.30;;;7.00;99.90;;;;;;5067230;28;38270;-74
2021/01/28 02:40:08;;;;;;;92.87;26.10;;;7.00;99.90;;;;;;5037890;28;39314;-74
2021/01/28 02:42:36;;;;;;;65.37;25.20;;;7.00;99.90;;;;;;5041198;28;39088;-74
2021/01/28 02:45:04;;;;;;;73.57;24.77;;;7.00;99.90;;;;;;5042697;28;37969;-74
2021/01/28 02:47:31;;;;;;;43.33;22.63;;;6.90;99.90;;;;;;5040463;27;48429;-74
2021/01/28 02:49:57;;;;;;;44.90;24.77;;;6.90;99.90;;;;;;5032641;28;38458;-74
2021/01/28 02:52:23;;;;;;;70.63;25.20;;;6.90;99.90;;;;;;5043877;27;37628;-74
2021/01/28 02:54:53;;;;;;;48.30;25.10;;;6.90;99.90;;;;;;5042413;28;38061;-74
2021/01/28 02:57:19;;;;;;;192.00;35.87;;;7.00;99.90;;;;;;5039309;28;40651;-74
2021/01/28 02:59:46;;;;;;;61.60;26.03;;;7.00;99.90;;;;;;5035803;28;39092;-74
2021/01/28 03:02:16;;;;;;;60.17;25.73;;;7.00;99.90;;;;;;5036739;28;34645;-74
2021/01/28 03:04:42;;;;;;;107.97;33.27;;;7.00;99.90;;;;;;5064939;28;37955;-75
2021/01/28 03:07:10;;;;;;;157.23;37.53;;;7.00;99.90;;;;;;5036246;27;38505;-75
2021/01/28 03:09:36;;;;;;;59.03;27.37;;;7.00;99.90;;;;;;5036637;27;36645;-75
2021/01/28 03:12:04;;;;;;;128.53;35.20;;;7.00;99.90;;;;;;5056078;27;39746;-75
2021/01/28 03:14:31;;;;;;;131.23;33.63;;;7.00;99.90;;;;;;5018360;28;38501;-74
2021/01/28 03:16:57;;;;;;;59.30;25.83;;;7.10;99.90;;;;;;5019179;28;39514;-75
2021/01/28 03:19:23;;;;;;;51.43;27.93;;;7.00;99.90;;;;;;5020219;28;39950;-75
2021/01/28 03:21:49;;;;;;;112.03;34.30;;;7.00;99.90;;;;;;5014263;28;39001;-75
2021/01/28 03:24:16;;;;;;;84.40;32.03;;;7.00;99.90;;;;;;5021207;28;38072;-74
2021/01/28 03:26:42;;;;;;;135.33;36.80;;;7.00;99.90;;;;;;5022984;28;38935;-75
2021/01/28 03:29:11;;;;;;;152.37;37.67;;;7.10;99.90;;;;;;5009683;28;37210;-75
2021/01/28 03:31:37;;;;;;;101.27;33.47;;;7.10;99.90;;;;;;5012022;28;37949;-75
2021/01/28 03:34:07;;;;;;;86.43;32.13;;;7.10;99.90;;;;;;5026390;27;33928;-75
2021/01/28 03:36:33;;;;;;;63.57;30.70;;;7.10;99.90;;;;;;5040742;28;40328;-75
2021/01/28 03:38:59;;;;;;;110.37;36.67;;;7.10;99.90;;;;;;5033190;28;38536;-75
2021/01/28 03:41:25;;;;;;;46.50;27.23;;;7.00;99.90;;;;;;5049136;28;39808;-75
2021/01/28 03:43:51;;;;;;;47.00;27.70;;;7.10;99.90;;;;;;5071664;28;36834;-75
2021/01/28 03:46:18;;;;;;;67.90;32.20;;;7.00;99.90;;;;;;5038036;27;38632;-75
2021/01/28 03:48:44;;;;;;;87.50;33.93;;;7.10;99.90;;;;;;5040264;28;39129;-75
2021/01/28 03:51:10;;;;;;;141.43;41.20;;;7.10;99.90;;;;;;5035166;28;38301;-75
2021/01/28 03:53:36;;;;;;;66.80;31.17;;;7.10;99.90;;;;;;5038723;27;38009;-75
2021/01/28 03:56:02;;;;;;;108.33;37.67;;;7.10;99.90;;;;;;5035266;27;39281;-74
2021/01/28 03:58:28;;;;;;;73.80;32.40;;;7.10;99.90;;;;;;5035237;28;37291;-75
2021/01/28 04:00:54;;;;;;;109.67;38.50;;;7.10;99.90;;;;;;5040679;28;39118;-75
2021/01/28 04:03:20;;;;;;;139.70;39.17;;;7.10;99.90;;;;;;5036823;27;37278;-74
2021/01/28 04:05:46;;;;;;;95.90;36.07;;;7.10;99.90;;;;;;5034654;28;39774;-74
2021/01/28 04:08:15;;;;;;;87.30;36.40;;;7.10;99.90;;;;;;5037941;28;37710;-75
2021/01/28 04:10:41;;;;;;;70.27;32.87;;;7.10;99.90;;;;;;5036319;28;38015;-76
2021/01/28 04:13:07;;;;;;;64.07;32.30;;;7.20;99.90;;;;;;5057070;27;36392;-75
2021/01/28 04:15:34;;;;;;;107.10;36.77;;;7.10;99.90;;;;;;5042895;28;37606;-75
2021/01/28 04:18:02;;;;;;;67.43;30.00;;;7.20;99.90;;;;;;5062214;28;42193;-75
2021/01/28 04:20:32;;;;;;;74.63;31.87;;;7.10;99.90;;;;;;5035349;28;47171;-75
2021/01/28 04:22:58;;;;;;;83.83;32.73;;;7.10;99.90;;;;;;5042119;28;37389;-75
2021/01/28 04:25:25;;;;;;;53.63;26.77;;;7.10;99.90;;;;;;5036459;27;39236;-75
2021/01/28 04:27:52;;;;;;;63.50;28.90;;;7.20;99.90;;;;;;5041466;28;37461;-74
2021/01/28 04:30:31;;;;;;;112.47;36.57;;;7.10;99.90;;;;;;5036562;28;38008;-74
2021/01/28 04:32:58;;;;;;;61.63;28.97;;;7.20;99.90;;;;;;5041423;28;37234;-75
2021/01/28 04:35:25;;;;;;;45.93;25.90;;;7.10;99.90;;;;;;5067456;28;39205;-74
2021/01/28 04:37:51;;;;;;;76.50;33.70;;;7.20;99.90;;;;;;5044569;28;38857;-75
2021/01/28 04:40:39;;;;;;;67.77;29.93;;;7.20;99.90;;;;;;5044272;28;38896;-75
2021/01/28 04:43:24;;;;;;;53.27;27.37;;;7.10;99.90;;;;;;5067044;28;38767;-75
2021/01/28 04:45:53;;;;;;;48.20;25.67;;;7.10;99.90;;;;;;5073499;28;39177;-77
2021/01/28 04:48:19;;;;;;;92.17;35.87;;;7.10;99.90;;;;;;5038522;28;38474;-74
2021/01/28 04:50:45;;;;;;;54.50;28.17;;;7.20;99.90;;;;;;5052028;28;38372;-75
2021/01/28 04:53:22;;;;;;;55.27;27.53;;;7.20;99.90;;;;;;5071303;28;38305;-75
2021/01/28 04:55:51;;;;;;;66.20;28.37;;;7.20;99.90;;;;;;5039457;28;39040;-76
2021/01/28 04:58:18;;;;;;;62.63;28.40;;;7.10;99.90;;;;;;5032558;28;38155;-75
2021/01/28 05:00:45;;;;;;;62.97;29.47;;;7.10;99.90;;;;;;5037731;28;39173;-74
2021/01/28 05:03:31;;;;;;;70.50;30.03;;;7.10;99.90;;;;;;5030946;28;39615;-73
2021/01/28 05:05:59;;;;;;;57.40;27.43;;;7.10;99.90;;;;;;5063673;28;37836;-75
2021/01/28 05:08:26;;;;;;;58.40;26.53;;;7.10;99.90;;;;;;5031017;28;39186;-74
2021/01/28 05:10:54;;;;;;;52.33;27.87;;;7.10;99.90;;;;;;5050264;27;39790;-74
2021/01/28 05:13:38;;;;;;;68.43;29.17;;;7.10;99.90;;;;;;5020392;28;36759;-74
2021/01/28 05:16:41;;;;;;;108.10;35.97;;;7.10;99.90;;;;;;5017830;28;39526;-74
2021/01/28 05:19:24;;;;;;;90.13;33.95;;;7.20;99.90;;;;;;5006162;28;36893;-73
2021/01/28 05:22:26;;;;;;;51.75;26.27;;;7.10;99.90;;;;;;5018185;28;38036;-75
2021/01/28 05:25:10;;;;;;;46.00;23.87;;;7.10;99.90;;;;;;5009357;28;47346;-74
2021/01/28 05:27:38;;;;;;;55.57;25.90;;;7.20;99.90;;;;;;5031214;28;47031;-73
2021/01/28 05:30:09;;;;;;;57.80;24.47;;;7.10;99.90;;;;;;5029413;28;38522;-76
2021/01/28 05:32:49;;;;;;;49.53;22.43;;;7.10;99.90;;;;;;5022214;28;47214;-75
2021/01/28 05:35:30;;;;;;;43.27;21.13;;;7.10;99.90;;;;;;5041034;28;36955;-77
2021/01/28 05:38:18;;;;;;;43.57;21.33;;;7.20;99.90;;;;;;5049254;28;38349;-73
2021/01/28 05:40:59;;;;;;;39.00;19.27;;;7.10;99.90;;;;;;5012061;28;46863;-75
2021/01/28 05:43:30;;;;;;;41.00;19.47;;;7.10;99.90;;;;;;5021696;28;38702;-72
2021/01/28 05:46:16;;;;;;;51.55;20.50;;;7.10;99.90;;;;;;5016503;28;37901;-75
2021/01/28 05:48:44;;;;;;;40.60;18.07;;;7.10;99.90;;;;;;5065125;27;47088;-74
2021/01/28 05:51:21;;;;;;;56.30;20.83;;;7.20;99.90;;;;;;5017714;28;38433;-74
2021/01/28 05:54:01;;;;;;;38.23;17.73;;;7.10;99.90;;;;;;5017806;28;38488;-77
2021/01/28 05:56:31;;;;;;;30.13;15.57;;;7.10;99.90;;;;;;5015322;28;47366;-73
2021/01/28 05:59:09;;;;;;;30.17;14.90;;;7.10;99.90;;;;;;5019114;28;38273;-75
2021/01/28 06:01:57;;;;;;;29.00;13.33;;;7.10;99.90;;;;;;5012784;28;47464;-75
2021/01/28 06:04:33;;;;;;;37.67;15.27;;;7.10;99.90;;;;;;5013303;28;37524;-74
2021/01/28 06:07:12;;;;;;;23.57;12.63;;;7.10;99.90;;;;;;5031931;28;39175;-74
2021/01/28 06:09:55;;;;;;;21.60;11.70;;;7.10;99.90;;;;;;5016099;28;48499;-74
2021/01/28 06:12:49;;;;;;;21.47;12.17;;;7.10;99.90;;;;;;5049105;28;40123;-73
2021/01/28 06:15:23;;;;;;;28.77;14.40;;;7.10;99.90;;;;;;5016171;28;36955;-75
2021/01/28 06:18:16;;;;;;;22.13;11.80;;;7.10;99.90;;;;;;5020111;28;37371;-76
2021/01/28 06:21:13;;;;;;;35.22;12.93;;;7.20;99.90;;;;;;5043328;28;47134;-75
2021/01/28 06:24:07;;;;;;;23.77;12.10;;;7.10;99.90;;;;;;5032137;28;47194;-75
2021/01/28 06:26:39;;;;;;;18.77;10.40;;;7.10;99.90;;;;;;5035454;28;47218;-76
2021/01/28 06:29:59;;;;;;;26.10;12.00;;;7.10;99.90;;;;;;5034536;28;36978;-76
2021/01/28 06:32:52;;;;;;;21.13;11.97;;;7.10;99.90;;;;;;5021782;28;38097;-75
2021/01/28 06:35:36;;;;;;;20.07;11.87;;;7.10;99.90;;;;;;5040852;28;39301;-74
2021/01/28 06:38:23;;;;;;;21.83;12.07;;;7.10;99.90;;;;;;5033031;27;38750;-76
2021/01/28 06:40:53;;;;;;;19.07;10.70;;;7.20;99.90;;;;;;5051405;28;37804;-76
2021/01/28 06:43:26;;;;;;;26.53;12.17;;;7.10;99.90;;;;;;5055071;28;39765;-75
2021/01/28 06:45:58;;;;;;;24.03;11.90;;;7.10;99.90;;;;;;5038741;27;38418;-76
2021/01/28 06:48:45;;;;;;;18.73;11.00;;;7.20;99.90;;;;;;5048951;28;39098;-75
2021/01/28 06:51:14;;;;;;;18.27;11.53;;;7.10;99.90;;;;;;5037499;28;38381;-75
2021/01/28 06:54:03;;;;;;;18.13;10.27;;;7.10;99.90;;;;;;5040665;28;39479;-76
2021/01/28 06:56:50;;;;;;;19.20;10.20;;;7.10;99.90;;;;;;5037785;28;48434;-76
2021/01/28 06:59:43;;;;;;;16.43;8.83;;;7.10;99.90;;;;;;5039105;28;38303;-75
2021/01/28 07:02:28;;;;;;;15.30;8.47;;;7.10;99.90;;;;;;5044511;28;37243;-75
2021/01/28 07:05:27;;;;;;;11.23;6.90;;;7.10;99.90;;;;;;5042588;28;37834;-75
2021/01/28 07:08:03;;;;;;;13.93;8.00;;;7.10;99.90;;;;;;5034765;28;49107;-75
2021/01/28 07:10:38;;;;;;;13.10;7.17;;;7.10;99.90;;;;;;5033731;28;48326;-75
2021/01/28 07:13:05;;;;;;;11.90;7.40;;;7.10;99.90;;;;;;5039941;28;37231;-76
2021/01/28 07:15:32;;;;;;;9.93;6.13;;;7.10;99.90;;;;;;5044502;28;39494;-75
2021/01/28 07:18:06;;;;;;;14.13;7.23;;;7.10;99.90;;;;;;5037787;28;38013;-74
2021/01/28 07:20:37;;;;;;;14.43;7.30;;;7.10;99.90;;;;;;5043721;28;46949;-75
2021/01/28 07:23:23;;;;;;;10.00;6.10;;;7.10;99.90;;;;;;5044319;28;36235;-75
2021/01/28 07:25:51;;;;;;;21.80;8.70;;;7.00;99.90;;;;;;5035326;28;39102;-75
2021/01/28 07:28:17;;;;;;;10.37;6.30;;;7.10;99.90;;;;;;5037035;28;41278;-75
2021/01/28 07:30:50;;;;;;;9.80;6.00;;;7.00;99.90;;;;;;5035047;28;38700;-75
2021/01/28 07:33:25;;;;;;;9.10;5.93;;;7.00;99.90;;;;;;5042690;28;37669;-75
2021/01/28 07:35:56;;;;;;;10.37;6.83;;;7.10;99.90;;;;;;5044645;28;39179;-75
2021/01/28 07:38:40;;;;;;;9.27;4.97;;;7.10;99.90;;;;;;5052162;28;36608;-75
2021/01/28 07:41:09;;;;;;;20.30;7.13;;;7.00;99.90;;;;;;5035853;28;38549;-76
2021/01/28 07:43:41;;;;;;;10.23;5.83;;;7.00;99.90;;;;;;5056182;28;38989;-75
2021/01/28 07:46:28;;;;;;;5.97;3.70;;;7.00;99.90;;;;;;5038176;28;39274;-75
2021/01/28 07:49:20;;;;;;;8.03;4.50;;;7.00;99.90;;;;;;5053878;28;38609;-76
2021/01/28 07:51:48;;;;;;;7.60;3.60;;;7.00;99.90;;;;;;5050172;28;47274;-75
2021/01/28 07:54:23;;;;;;;6.20;4.47;;;7.00;99.90;;;;;;5049956;28;36338;-75
2021/01/28 07:57:12;;;;;;;6.63;3.67;;;6.90;99.90;;;;;;5049115;28;39285;-75
2021/01/28 07:59:52;;;;;;;7.23;4.20;;;6.90;99.90;;;;;;5030705;28;48743;-76
2021/01/28 08:02:30;;;;;;;6.00;4.17;;;6.90;99.90;;;;;;5034599;28;38837;-75
2021/01/28 08:05:18;;;;;;;8.10;4.63;;;6.90;99.90;;;;;;5037872;28;37368;-73
2021/01/28 08:08:01;;;;;;;8.23;4.47;;;6.90;99.90;;;;;;5028883;28;46927;-75
2021/01/28 08:10:34;;;;;;;8.85;5.75;;;6.90;99.90;;;;;;5031601;28;46397;-75
2021/01/28 08:13:07;;;;;;;5.17;4.03;;;6.90;99.90;;;;;;5035313;28;38962;-75
2021/01/28 08:15:39;;;;;;;4.82;3.47;;;6.90;99.90;;;;;;5037192;28;49099;-75
2021/01/28 08:18:26;;;;;;;4.10;3.30;;;6.90;99.90;;;;;;5046368;28;39285;-75
2021/01/28 08:21:11;;;;;;;8.17;3.87;;;6.90;99.90;;;;;;5010189;28;38998;-75
2021/01/28 08:23:42;;;;;;;8.37;4.37;;;6.90;99.90;;;;;;5024861;28;47289;-74
2021/01/28 08:26:13;;;;;;;8.33;4.27;;;6.80;99.90;;;;;;5035560;28;36046;-74
2021/01/28 08:28:42;;;;;;;5.63;3.70;;;6.80;99.90;;;;;;5028340;28;41575;-73
2021/01/28 08:31:24;;;;;;;6.60;4.17;;;6.80;99.90;;;;;;5020307;28;38182;-74
2021/01/28 08:34:03;;;;;;;7.05;5.10;;;6.80;99.90;;;;;;5034036;28;37029;-74
2021/01/28 08:36:47;;;;;;;5.50;3.73;;;6.80;99.90;;;;;;5021966;28;48413;-73
2021/01/28 08:39:28;;;;;;;5.67;3.40;;;6.80;99.90;;;;;;5018427;28;39507;-74
2021/01/28 08:42:05;;;;;;;6.17;4.60;;;6.80;99.90;;;;;;5010508;28;39601;-74
2021/01/28 08:44:33;;;;;;;6.70;3.60;;;6.80;99.90;;;;;;5036278;28;47381;-75
2021/01/28 08:47:16;;;;;;;4.43;3.27;;;6.80;99.90;;;;;;5014651;28;37139;-74
2021/01/28 08:49:58;;;;;;;;;;;6.80;99.90;;;;;;5022425;28;46665;-74
2021/01/28 08:52:24;;;;;;;3.23;2.50;;;6.80;99.90;;;;;;5014284;28;37884;-75
2021/01/28 08:54:50;;;;;;;3.33;2.80;;;6.80;99.90;;;;;;5015769;28;38603;-73
2021/01/28 08:57:20;;;;;;;3.73;3.03;;;6.80;99.90;;;;;;5040058;28;37855;-73
2021/01/28 08:59:53;;;;;;;7.07;3.33;;;6.80;99.90;;;;;;5013188;28;38077;-75
2021/01/28 09:02:34;;;;;;;7.43;3.73;;;6.80;99.90;;;;;;5035766;28;38827;-75
2021/01/28 09:05:22;;;;;;;4.23;2.77;;;6.80;99.90;;;;;;5012474;28;38429;-75
2021/01/28 09:07:54;;;;;;;6.60;3.80;;;6.80;99.90;;;;;;5026273;28;47626;-72
2021/01/28 09:10:34;;;;;;;4.17;3.13;;;6.80;99.90;;;;;;5020549;28;40421;-73
2021/01/28 09:13:16;;;;;;;3.93;3.03;;;6.80;99.90;;;;;;5022170;28;38541;-73
2021/01/28 09:15:43;;;;;;;4.45;3.33;;;6.80;99.90;;;;;;5014545;28;48965;-74
2021/01/28 09:18:33;;;;;;;3.87;3.13;;;6.80;99.90;;;;;;5018268;28;37805;-74
2021/01/28 09:21:16;;;;;;;5.27;3.43;;;6.80;99.90;;;;;;5020730;28;39897;-75
2021/01/28 09:24:18;;;;;;;3.72;3.22;;;6.80;99.90;;;;;;5032602;28;46949;-75
2021/01/28 09:26:45;;;;;;;7.53;4.35;;;6.80;99.90;;;;;;5033706;28;47370;-75
2021/01/28 09:29:15;;;;;;;3.57;3.27;;;6.80;99.90;;;;;;5036837;28;37142;-74
2021/01/28 09:31:42;;;;;;;4.77;3.20;;;6.80;99.90;;;;;;5039615;28;39294;-75
2021/01/28 09:34:14;;;;;;;5.40;4.00;;;6.80;99.90;;;;;;5046027;28;39282;-75
2021/01/28 09:36:42;;;;;;;3.22;2.80;;;6.80;99.90;;;;;;5018848;28;38317;-75
2021/01/28 09:39:27;;;;;;;3.67;3.03;;;6.80;99.90;;;;;;5021389;28;37317;-75
2021/01/28 09:41:53;;;;;;;4.87;3.50;;;6.80;99.90;;;;;;5018701;28;37383;-76
2021/01/28 09:44:44;;;;;;;3.00;2.67;;;6.80;99.90;;;;;;5023622;28;39269;-74
2021/01/28 09:47:21;;;;;;;3.67;3.10;;;6.80;99.90;;;;;;5023750;28;40237;-75
2021/01/28 09:49:58;;;;;;;3.87;2.70;;;6.90;99.90;;;;;;5024404;28;38773;-74
2021/01/28 09:52:26;;;;;;;5.03;2.90;;;6.90;99.90;;;;;;5063278;28;39628;-77
2021/01/28 09:55:02;;;;;;;6.93;3.10;;;7.00;99.90;;;;;;5053478;28;40683;-73
2021/01/28 09:57:28;;;;;;;3.67;3.30;;;7.00;99.90;;;;;;5020556;28;40475;-74
2021/01/28 09:59:57;;;;;;;3.93;2.50;;;7.00;99.90;;;;;;5032658;28;37971;-76
2021/01/28 10:02:46;;;;;;;4.17;2.80;;;7.10;99.90;;;;;;5018659;28;39265;-75
2021/01/28 10:05:15;;;;;;;3.27;2.57;;;7.10;99.90;;;;;;5033950;27;38939;-76
2021/01/28 10:07:41;;;;;;;3.23;2.00;;;7.20;99.90;;;;;;5025130;28;38974;-76
2021/01/28 10:10:08;;;;;;;3.97;2.43;;;7.10;99.90;;;;;;5022257;28;37859;-77
2021/01/28 10:12:34;;;;;;;3.00;2.30;;;7.20;99.90;;;;;;5022157;28;41643;-77
2021/01/28 10:15:00;;;;;;;4.23;2.20;;;7.20;99.90;;;;;;5038146;28;39024;-75
2021/01/28 10:17:27;;;;;;;3.03;2.57;;;7.20;99.90;;;;;;5031624;28;39131;-75
2021/01/28 10:19:53;;;;;;;3.57;2.60;;;7.20;99.90;;;;;;5037250;28;37899;-75
2021/01/28 10:22:21;;;;;;;3.97;2.87;;;7.20;99.90;;;;;;5039237;28;39953;-75
2021/01/28 10:24:47;;;;;;;3.03;2.50;;;7.10;99.90;;;;;;5072478;28;39281;-75
2021/01/28 10:27:13;;;;;;;3.30;2.50;;;7.10;99.90;;;;;;5041064;28;38887;-76
2021/01/28 10:29:42;;;;;;;3.40;2.73;;;7.10;99.90;;;;;;5043178;28;39152;-76
2021/01/28 10:32:10;;;;;;;2.60;2.37;;;7.00;99.90;;;;;;5055298;28;37792;-76
2021/01/28 10:34:36;;;;;;;4.97;3.47;;;7.10;99.90;;;;;;5040411;28;37288;-76
2021/01/28 10:37:05;;;;;;;5.30;3.60;;;7.10;99.90;;;;;;5044054;28;37196;-76
2021/01/28 10:39:31;;;;;;;4.63;3.83;;;7.00;99.90;;;;;;5037527;28;37158;-76
2021/01/28 10:41:58;;;;;;;3.83;3.43;;;7.10;99.90;;;;;;5039056;28;38974;-76
2021/01/28 10:44:24;;;;;;;4.23;3.43;;;7.00;99.90;;;;;;5032257;28;38621;-75
2021/01/28 10:46:51;;;;;;;4.60;3.50;;;7.00;99.90;;;;;;5034545;28;38740;-75
2021/01/28 10:49:17;;;;;;;5.13;3.60;;;7.00;99.90;;;;;;5034486;28;37368;-76
2021/01/28 10:51:44;;;;;;;5.50;4.27;;;7.00;99.90;;;;;;5039522;28;38669;-75
2021/01/28 10:54:10;;;;;;;5.70;4.00;;;7.00;99.90;;;;;;5035723;28;37243;-75
2021/01/28 10:56:37;;;;;;;3.70;3.40;;;7.10;99.90;;;;;;5039056;28;38135;-76
2021/01/28 10:59:03;;;;;;;3.50;3.20;;;7.10;99.90;;;;;;5036207;27;37889;-76
2021/01/28 11:01:30;;;;;;;3.73;3.37;;;7.10;99.90;;;;;;5048441;28;37590;-75
2021/01/28 11:03:56;;;;;;;4.37;3.67;;;7.10;99.90;;;;;;5070834;28;40114;-76
2021/01/28 11:06:22;;;;;;;3.73;2.90;;;7.20;99.90;;;;;;5033068;28;36019;-76
2021/01/28 11:08:48;;;;;;;3.60;2.90;;;7.10;99.90;;;;;;5065407;28;36115;-76
2021/01/28 11:11:15;;;;;;;5.17;2.60;;;7.10;99.90;;;;;;5038339;28;37446;-77
2021/01/28 11:13:42;;;;;;;3.40;2.63;;;7.20;99.90;;;;;;5050659;28;38478;-75
2021/01/28 11:16:09;;;;;;;4.93;2.73;;;7.20;99.90;;;;;;5031549;28;37838;-75
2021/01/28 11:18:35;;;;;;;3.20;2.67;;;7.20;99.90;;;;;;5039782;28;37896;-76
2021/01/28 11:21:01;;;;;;;3.50;2.57;;;7.30;99.90;;;;;;5039516;28;40530;-74
2021/01/28 11:23:27;;;;;;;3.20;2.80;;;7.40;99.90;;;;;;5042540;28;38354;-75
2021/01/28 11:25:53;;;;;;;3.00;2.30;;;7.30;99.90;;;;;;5030875;28;38863;-74
2021/01/28 11:28:20;;;;;;;2.40;2.20;;;7.40;99.90;;;;;;5035030;28;36736;-75
2021/01/28 11:30:46;;;;;;;2.30;2.10;;;7.30;99.90;;;;;;5049680;28;38354;-75
2021/01/28 11:33:12;;;;;;;2.23;2.00;;;7.40;99.90;;;;;;5035474;28;37673;-75
2021/01/28 11:35:38;;;;;;;2.73;2.43;;;7.30;99.90;;;;;;5062692;28;38577;-75
2021/01/28 11:38:07;;;;;;;3.17;2.47;;;7.30;99.90;;;;;;5042011;28;35962;-75
2021/01/28 11:40:35;;;;;;;3.77;2.43;;;7.50;99.90;;;;;;5038991;28;38479;-74
2021/01/28 11:43:03;;;;;;;2.93;2.20;;;7.50;99.90;;;;;;5034018;28;38486;-75
2021/01/28 11:45:32;;;;;;;2.97;2.17;;;7.50;99.90;;;;;;5038006;28;46680;-74
2021/01/28 11:47:58;;;;;;;2.63;1.70;;;7.30;99.90;;;;;;5050004;28;36342;-75
2021/01/28 11:50:25;;;;;;;2.10;1.90;;;7.30;99.90;;;;;;5039725;28;37734;-75
2021/01/28 11:52:52;;;;;;;1.63;1.53;;;7.30;99.90;;;;;;5018308;28;38381;-75
2021/01/28 11:55:22;;;;;;;3.27;1.80;;;7.30;99.90;;;;;;5007531;28;38685;-75
2021/01/28 11:57:49;;;;;;;1.60;1.50;;;7.40;99.90;;;;;;5010940;28;38189;-75
2021/01/28 12:00:16;;;;;;;2.63;1.90;;;7.40;99.90;;;;;;5046345;28;40416;-73
2021/01/28 12:02:43;;;;;;;1.60;1.50;;;7.40;99.90;;;;;;5010545;28;38470;-74
2021/01/28 12:05:11;;;;;;;2.00;1.60;;;7.40;99.90;;;;;;5024102;28;38141;-75
2021/01/28 12:07:37;;;;;;;1.90;1.73;;;7.50;99.90;;;;;;5007476;28;38056;-76
2021/01/28 12:10:07;;;;;;;2.00;1.80;;;7.50;99.90;;;;;;5008397;28;38671;-75
2021/01/28 12:12:33;;;;;;;2.63;2.43;;;7.50;99.90;;;;;;5018726;28;47354;-76
2021/01/28 12:14:59;;;;;;;2.50;2.13;;;7.50;99.90;;;;;;5028482;28;38527;-75
2021/01/28 12:17:25;;;;;;;1.80;1.70;;;7.50;99.90;;;;;;5013714;28;37254;-75
2021/01/28 12:19:51;;;;;;;3.70;2.73;;;7.70;99.90;;;;;;5022094;28;39305;-75
2021/01/28 12:22:17;;;;;;;1.50;1.40;;;7.70;99.90;;;;;;5051324;27;39848;-76
2021/01/28 12:24:43;;;;;;;1.60;1.50;;;7.70;99.90;;;;;;5012782;28;37647;-75
2021/01/28 12:27:10;;;;;;;2.33;2.13;;;7.60;99.90;;;;;;5022696;28;38991;-75
2021/01/28 12:29:36;;;;;;;3.73;2.43;;;7.60;99.90;;;;;;5016075;28;39856;-75
2021/01/28 12:32:02;;;;;;;1.90;1.70;;;7.70;99.90;;;;;;5023721;28;38342;-76
2021/01/28 12:34:28;;;;;;;2.10;1.93;;;7.70;99.90;;;;;;5018085;28;37996;-75
2021/01/28 12:36:54;;;;;;;3.43;2.53;;;7.70;99.90;;;;;;5028597;28;37640;-75
2021/01/28 12:39:20;;;;;;;4.53;2.33;;;7.70;99.90;;;;;;5012630;28;39563;-76
2021/01/28 12:41:46;;;;;;;5.10;2.93;;;7.70;99.90;;;;;;5014938;28;38296;-75
2021/01/28 12:44:12;;;;;;;4.03;2.77;;;7.60;99.90;;;;;;5038798;28;39510;-74
2021/01/28 12:46:38;;;;;;;3.87;2.33;;;7.60;99.90;;;;;;5059845;28;37790;-73
2021/01/28 12:49:04;;;;;;;3.70;2.00;;;7.50;99.90;;;;;;5042470;28;39083;-74
2021/01/28 12:51:30;;;;;;;3.63;2.80;;;7.50;99.90;;;;;;5010548;28;39172;-77
2021/01/28 12:53:57;;;;;;;2.63;2.40;;;7.50;99.90;;;;;;5014017;28;36511;-76
2021/01/28 12:56:23;;;;;;;4.27;2.13;;;7.60;99.90;;;;;;5009017;27;37371;-74
2021/01/28 12:58:49;;;;;;;3.37;2.23;;;7.60;99.90;;;;;;5013481;28;39785;-73
2021/01/28 13:01:15;;;;;;;2.40;1.93;;;7.70;99.90;;;;;;5013968;28;40357;-76
2021/01/28 13:03:41;;;;;;;2.10;1.77;;;7.60;99.90;;;;;;5019662;28;36696;-76
2021/01/28 13:06:07;;;;;;;2.10;1.90;;;7.70;99.90;;;;;;5015495;28;37818;-75
2021/01/28 13:08:33;;;;;;;2.47;2.27;;;7.70;99.90;;;;;;5062228;28;41080;-76
2021/01/28 13:10:59;;;;;;;3.27;2.40;;;7.70;99.90;;;;;;5025375;28;38624;-76